Tiempo atmosférico en la estación meteorológica de La Almunia De Doña Godina, Zaragoza (370 m.)



Fecha
DESCASC
Temp. máxima en grados centígrados (hora)
DESCASC
Temp. mínima en grados centígrados (hora)
DESCASC
Temp. media en grados centígrados
DESCASC
Racha de viento máxima en m/sg (hora)
DESCASC
Velocidad máxima media en intervalos de 10 minutos(hora)
DESCASC
Precipitaciones diarias en mm
DESCASC
Precipitaciones de 00:00 a 06:00 en mm
DESCASC
Precipitaciones de 06:00 a 12:00 en mm
DESCASC
Precipitaciones de 12:00 a 18:00 en mm
DESCASC
Precipitaciones de 18:00 a 24:00 en mm
DESCASC
25-01-2020 10.2 (15:40) 4.2 (06:00) 7.2 3.33 (18:00) 1.67 (13:10) 5.6 0 1 0 4.6
24-01-2020 12.7 (15:30) 2.1 (06:20) 7.4 2.78 (17:10) 1.67 (17:10) 0 0 0 0 0
23-01-2020 12 (14:40) 4.9 (04:50) 8.5 8.61 (13:00) 3.89 (15:20) 0 0 0 0 0
22-01-2020 7.2 (16:40) 3.8 (00:00) 5.5 2.78 (04:00) 1.94 (04:40) 2.8 1.4 0 0 1.4
21-01-2020 6 (18:40) 0.6 (00:00) 3.3 9.72 (19:10) 5.56 (19:10) 47.2 1 13.2 19.4 13.6
20-01-2020 6 (13:50) 2 (00:00) 4 16.11 (00:40) 8.33 (00:30) 0 0 0 0 0
19-01-2020 7.9 (15:10) 3.4 (00:00) 5.7 22.78 (19:20) 12.78 (17:20) 0.2 0 0.2 0 0
18-01-2020 13.3 (16:00) 0.7 (00:00) 7 10.83 (23:40) 5.56 (23:50) 1.6 0 0 0 1.6
17-01-2020 16 (15:00) 2 (00:00) 9 13.61 (07:50) 6.94 (08:00) 0 0 0 0 0
16-01-2020 17.7 (15:10) 3.8 (00:00) 10.8 7.22 (00:50) 3.61 (02:10) 0 0 0 0 0
15-01-2020 16.4 (15:00) 2.6 (00:00) 9.5 8.33 (12:50) 4.72 (13:20) 0 0 0 0 0
14-01-2020 11.2 (14:10) 4.9 (00:00) 8 13.33 (01:30) 6.67 (11:10) 0 0 0 0 0
13-01-2020 7.7 (21:20) -4.2 (-00:0) 1.8 7.5 (21:00) 4.72 (23:40) 0 0 0 0 0
12-01-2020 14.3 (16:40) -4.1 (06:20) 5.1 5.56 (21:00) 2.5 (23:00) 0 0 0 0 0
11-01-2020 13.2 (16:50) -0.6 (-00:0) 6.3 7.5 (14:50) 4.17 (14:50) 0 0 0 0 0
10-01-2020 11.5 (14:50) 2.5 (00:00) 7 11.67 (15:10) 7.22 (15:10) 0.2 0.2 0 0 0
09-01-2020 3.2 (16:00) 0.6 (00:00) 1.9 4.44 (23:30) 2.5 (23:30) 0 0 0 0 0
08-01-2020 6.2 (15:40) -1.8 (-00:0) 2.2 3.89 (12:30) 2.78 (16:20) 0 0 0 0 0
07-01-2020 11.3 (15:20) -3.6 (-00:0) 3.9 3.61 (16:10) 2.22 (16:10) 0 0 0 0 0
06-01-2020 1.5 (00:00) -1.4 (-00:0) 0.1 3.33 (11:30) 1.94 (11:30) 0 0 0 0 0
05-01-2020 15.2 (16:20) 0.3 (00:00) 7.7 8.61 (13:00) 3.89 (13:00) 0 0 0 0 0
04-01-2020 13.1 (14:40) 3 (00:00) 8.1 9.44 (15:00) 5.28 (13:50) 0 0 0 0 0
03-01-2020 11.5 (16:40) -0.7 (-00:0) 5.4 6.39 (17:50) 3.06 (16:30) 0 0 0 0 0
02-01-2020 0.8 (14:40) -0.6 (-00:0) 0.1 3.06 (18:30) 1.67 (16:30) 0 0 0 0 0
01-01-2020 2.2 (15:40) -0.1 (00:00) 1.1 3.33 (17:00) 2.22 (17:10) 0 0 0 0 0
31-12-2019 2.2 (16:00) 0.2 (00:00) 1.2 3.06 (07:20) 1.94 (07:30) 0 0 0 0 0
30-12-2019 -- (--) -- (--) -- -- (--) -- (--) -- 0 0 0 --
29-12-2019 1 (16:40) -1.9 (-00:0) -0.4 2.22 (18:10) 1.67 (23:40) 0 0 0 0 0
28-12-2019 13.4 (14:40) -1.2 (-00:0) 6.1 7.22 (06:50) 3.89 (07:00) 0 0 0 0 0

Gráficas

Temp. máximas Temp. mínimas Temp. medias Precipitaciones Rachas de viento máximas Velocidades máximas media en intervalos de 10 minutos

Datos horarios

Fecha y hora oficial Temperatura (ºC) Velocidad del viento (km/h) Dirección del viento Racha (km/h) Dirección de racha Precipitación (mm) Presión (hPa) Tendencia (hPa) Humedad (%)
2020-01-26 23:00:00 7.9 9 Sudoeste 24 Oeste 0 -- -- 71
2020-01-26 22:00:00 5.7 6 Sudoeste 10 Sudoeste 0 -- -- 82
2020-01-26 21:00:00 6.2 6 Sudoeste 11 Sudoeste 0 -- -- 77
2020-01-26 20:00:00 7.5 5 Oeste 10 Oeste 0 -- -- 72
2020-01-26 19:00:00 9.5 5 Oeste 16 Oeste 0 -- -- 62
2020-01-26 18:00:00 11.2 7 Oeste 23 Oeste 0 -- -- 53
2020-01-26 17:00:00 13 7 Oeste 17 Norte 0 -- -- 53
2020-01-26 16:00:00 13.2 4 Este 10 Este 0 -- -- 65
2020-01-26 15:00:00 11.3 8 Nordeste 18 Noroeste 0.4 -- -- 70
2020-01-26 14:00:00 12.2 7 Sudoeste 28 Sudoeste 0 -- -- 64
2020-01-26 13:00:00 12.8 13 Sudoeste 23 Sudoeste 0 -- -- 67
2020-01-26 12:00:00 10.7 7 Sudoeste 14 Sudoeste 0 -- -- 82
2020-01-26 11:00:00 8 3 Sur 6 Sudoeste 0 -- -- 99
2020-01-26 10:00:00 6.6 0 Calma 5 Sudoeste 0 -- -- 99
2020-01-26 09:00:00 5.6 4 Sudoeste 6 Noroeste 0 -- -- 98
2020-01-26 08:00:00 5.3 0 Calma 6 Sudoeste 0 -- -- 98
2020-01-26 07:00:00 5.5 0 Calma 6 Norte 0 -- -- 98
2020-01-26 06:00:00 5.5 0 Calma -- -- 0 -- -- 97
2020-01-26 05:00:00 6.1 0 Calma -- -- 0.4 -- -- 97
2020-01-26 04:00:00 6.5 0 Calma 4 Sur 0.2 -- -- 97
2020-01-26 03:00:00 6.7 0 Calma 3 Sudoeste 0 -- -- 96
2020-01-26 02:00:00 7.2 0 Calma 3 Noroeste 0 -- -- 96
2020-01-26 01:00:00 7.3 2 Oeste 4 Oeste 0 -- -- 96
2020-01-26 00:00:00 7.7 0 Calma 4 Oeste 0 -- -- 95
2020-01-25 23:00:00 7.8 0 Calma 5 Oeste 0 -- -- 96
2020-01-25 22:00:00 7.8 0 Calma 5 Noroeste 0.6 -- -- 95
2020-01-25 21:00:00 8.1 0 Calma 5 Este 2 -- -- 94
2020-01-25 20:00:00 8.3 0 Calma 5 Nordeste 1.6 -- -- 93
2020-01-25 19:00:00 9.2 4 Este 10 Sudoeste 0.4 -- -- 87
2020-01-25 18:00:00 9.8 0 Calma 12 Sudoeste 0 -- -- 88
2020-01-25 17:00:00 10.1 0 Calma 7 Norte 0 -- -- 85
2020-01-25 16:00:00 10.2 4 Norte 10 Nordeste 0 -- -- 85
2020-01-25 15:00:00 9.7 5 Norte 9 Norte 0 -- -- 84
2020-01-25 14:00:00 9.9 2 Nordeste 11 Norte 0 -- -- 84
2020-01-25 13:00:00 9.1 3 Norte 9 Nordeste 0 -- -- 87
2020-01-25 12:00:00 7.2 3 Nordeste 6 Nordeste 0.2 -- -- 97
2020-01-25 11:00:00 6 3 Norte 6 Nordeste 0.6 -- -- 97
2020-01-25 10:00:00 5.2 0 Calma -- -- 0.2 -- -- 97
2020-01-25 09:00:00 4.5 0 Calma -- -- 0 -- -- 97
2020-01-25 08:00:00 4.4 0 Calma 5 Sudoeste 0 -- -- 96
2020-01-25 07:00:00 4.3 0 Calma 5 Nordeste 0 -- -- 96
2020-01-25 06:00:00 4.2 3 Sudoeste 6 Sudoeste 0 -- -- 95
2020-01-25 05:00:00 5.1 0 Calma 6 Sudoeste 0 -- -- 94
2020-01-25 04:00:00 6 0 Calma -- -- 0 -- -- 92
2020-01-25 03:00:00 6.2 0 Calma 6 Sudoeste 0 -- -- 90
2020-01-25 02:00:00 6.2 0 Calma 6 Noroeste 0 -- -- 90
2020-01-25 01:00:00 6.7 2 Norte 6 Noroeste 0 -- -- 88
2020-01-25 00:00:00 7.1 0 Calma 8 Norte 0 -- -- 87
2020-01-24 23:00:00 7.3 3 Noroeste 8 Noroeste 0 -- -- 87
2020-01-24 22:00:00 7.7 2 Noroeste 5 Este 0 -- -- 85
2020-01-24 21:00:00 8.2 0 Calma -- -- 0 -- -- 84
2020-01-24 20:00:00 8.7 0 Calma 8 Sudeste 0 -- -- 83
2020-01-24 19:00:00 9.4 5 Sudeste 9 Sudeste 0 -- -- 79
2020-01-24 18:00:00 11.2 3 Sudeste 10 Sur 0 -- -- 68
2020-01-24 17:00:00 11.9 5 Sudeste 10 Sudeste 0 -- -- 65
2020-01-24 16:00:00 12.4 4 Este 7 Sudeste 0 -- -- 64
2020-01-24 15:00:00 12.1 2 Nordeste 9 Nordeste 0 -- -- 66
2020-01-24 14:00:00 11.3 4 Norte 8 Nordeste 0 -- -- 67
2020-01-24 13:00:00 10.6 4 Nordeste 9 Nordeste 0 -- -- 72
2020-01-24 12:00:00 11 5 Este 8 Este 0 -- -- 73
2020-01-24 11:00:00 8.7 3 Sudeste 8 Sudoeste 0 -- -- 80
2020-01-24 10:00:00 5.7 0 Calma 6 Sudoeste 0 -- -- 97
2020-01-24 09:00:00 3.2 0 Calma 8 Sur 0 -- -- 97
2020-01-24 08:00:00 2.9 3 Sudoeste 8 Sur 0 -- -- 97
2020-01-24 07:00:00 2.4 0 Calma 7 Sur 0 -- -- 96
2020-01-24 06:00:00 2.3 2 Este 9 Oeste 0 -- -- 95
2020-01-24 05:00:00 2.6 3 Sur 6 Sudoeste 0 -- -- 95
2020-01-24 04:00:00 2.7 0 Calma 6 Sudoeste 0 -- -- 95
2020-01-24 03:00:00 2.8 4 Sudoeste 7 Sudoeste 0 -- -- 94
2020-01-24 02:00:00 4.1 2 Sudoeste 7 Sudoeste 0 -- -- 92
2020-01-24 01:00:00 5.3 3 Sudoeste 5 Sudoeste 0 -- -- 91
2020-01-24 00:00:00 5.3 0 Calma 5 Sudoeste 0 -- -- 91
2020-01-23 23:00:00 5.7 2 Este 5 Nordeste 0 -- -- 88
2020-01-23 22:00:00 6.1 4 Nordeste 6 Nordeste 0 -- -- 88
2020-01-23 21:00:00 6.2 0 Calma 6 Nordeste 0 -- -- 86
2020-01-23 20:00:00 6.3 3 Nordeste 9 Sudeste 0 -- -- 84
2020-01-23 19:00:00 6.2 4 Nordeste 11 Sudeste 0 -- -- 83
2020-01-23 18:00:00 7.7 7 Este 18 Sudeste 0 -- -- 77
2020-01-23 17:00:00 9.4 10 Sudeste 21 Sudeste 0 -- -- 72
2020-01-23 16:00:00 10.6 10 Sudeste 23 Sudeste 0 -- -- 70
2020-01-23 15:00:00 11.8 10 Sudeste 19 Sudeste 0 -- -- 62
2020-01-23 14:00:00 10.9 2 Sudeste 17 Sur 0 -- -- 66
2020-01-23 13:00:00 9.9 8 Sur 31 Sudoeste 0 -- -- 72
2020-01-23 12:00:00 8.8 8 Sudoeste 19 Sudoeste 0 -- -- 77
2020-01-23 11:00:00 7.5 10 Sudoeste 17 Sudoeste 0 -- -- 81
2020-01-23 10:00:00 6.1 2 Sur 9 Sur 0 -- -- 91
2020-01-23 09:00:00 5.1 3 Sudoeste 8 Sudoeste 0 -- -- 95
2020-01-23 08:00:00 5 3 Sudoeste 9 Sudoeste 0 -- -- 95
2020-01-23 07:00:00 5.4 5 Sudoeste 9 Sudoeste 0 -- -- 96
2020-01-23 06:00:00 5.3 3 Noroeste 8 Oeste 0 -- -- 97
2020-01-23 05:00:00 5 4 Sudoeste 6 Sudoeste 0 -- -- 97
2020-01-23 04:00:00 5 0 Calma 5 Sudeste 0 -- -- 97
2020-01-23 03:00:00 5.2 0 Calma 5 Sudoeste 0 -- -- 97
2020-01-23 02:00:00 5.3 0 Calma 5 Nordeste 0 -- -- 97
2020-01-23 01:00:00 5.2 0 Calma 5 Sudoeste 0 -- -- 96
2020-01-23 00:00:00 5.3 0 Calma 3 Noroeste 0.4 -- -- 95
2020-01-22 23:00:00 5.7 0 Calma 4 Sur 0.8 -- -- 95
2020-01-22 22:00:00 6 3 Sudeste 6 Sudeste 0.2 -- -- 94
2020-01-22 21:00:00 6.1 3 Sudoeste 7 Sudoeste 0 -- -- 94
2020-01-22 20:00:00 6.3 0 Calma 7 Oeste 0 -- -- 92
2020-01-22 19:00:00 6.5 0 Calma -- -- 0 -- -- 92
2020-01-22 18:00:00 6.9 0 Calma 6 Sudoeste 0 -- -- 89
2020-01-22 17:00:00 7.2 0 Calma 6 Sudoeste 0 -- -- 87
2020-01-22 16:00:00 7.1 0 Calma 5 Sudoeste 0 -- -- 88
2020-01-22 15:00:00 6.8 2 Sur 5 Sudoeste 0 -- -- 91
2020-01-22 14:00:00 6.2 0 Calma 9 Sudeste 0 -- -- 91
2020-01-22 13:00:00 5.7 4 Sur 8 Sudeste 0 -- -- 92
2020-01-22 12:00:00 5.3 2 Sudeste 8 Sudeste 0 -- -- 93
2020-01-22 11:00:00 5.1 4 Este 9 Este 0 -- -- 96
2020-01-22 10:00:00 4.5 3 Sur 6 Sudeste 0 -- -- 97
2020-01-22 09:00:00 4.2 0 Calma 5 Sudeste 0 -- -- 97
2020-01-22 08:00:00 4.1 0 Calma 6 Este 0 -- -- 97
2020-01-22 07:00:00 4.1 0 Calma 9 Sudeste 0 -- -- 97
2020-01-22 06:00:00 4 3 Sur 8 Sudoeste 0.4 -- -- 97
2020-01-22 05:00:00 4 4 Sur 9 Sur 0.2 -- -- 97
2020-01-22 04:00:00 4.1 6 Sur 10 Sur 0 -- -- 97
2020-01-22 03:00:00 4.3 0 Calma 6 Sur 0 -- -- 97
2020-01-22 02:00:00 4.1 2 Nordeste 6 Norte 0.2 -- -- 97
2020-01-22 01:00:00 4 0 Calma 6 Este 0.6 -- -- 96
2020-01-22 00:00:00 4.1 2 Sudoeste 6 Sudoeste 2.4 -- -- 96
2020-01-21 23:00:00 4.1 4 Sudoeste 6 Sudoeste 2 -- -- 96
2020-01-21 22:00:00 4.5 0 Calma 8 Sudoeste 2.2 -- -- 95
2020-01-21 21:00:00 4.9 4 Norte 21 Norte 2 -- -- 94
2020-01-21 20:00:00 4.8 8 Este 35 Norte 3.4 -- -- 93
2020-01-21 19:00:00 5.7 18 Norte 35 Nordeste 1.6 -- -- 91
2020-01-21 18:00:00 5.1 10 Nordeste 26 Nordeste 1.8 -- -- 93
2020-01-21 17:00:00 5.5 11 Nordeste 22 Norte 3.8 -- -- 92
2020-01-21 16:00:00 3.7 4 Sudeste 16 Nordeste 3.6 -- -- 96
2020-01-21 15:00:00 2.8 5 Sudoeste 13 Sur 2.8 -- -- 96
2020-01-21 14:00:00 2.2 7 Sur 12 Sudoeste 3 -- -- 96
2020-01-21 13:00:00 1.7 6 Sudoeste 15 Sur 4.4 -- -- 95
2020-01-21 12:00:00 2.3 10 Sur 24 Norte 1.8 -- -- 91
2020-01-21 11:00:00 2.4 9 Norte 23 Norte 2 -- -- 93
2020-01-21 10:00:00 0.9 4 Sudoeste 13 Sudoeste 2 -- -- 96
2020-01-21 09:00:00 0.7 6 Sudoeste 10 Sur 2.6 -- -- 95
2020-01-21 08:00:00 0.7 0 Calma 9 Nordeste 3.2 -- -- 93
2020-01-21 07:00:00 0.8 4 Nordeste 24 Nordeste 1.6 -- -- 91
2020-01-21 06:00:00 2.7 13 Nordeste 24 Nordeste 0 -- -- 83
2020-01-21 05:00:00 2.3 7 Nordeste 22 Nordeste 0 -- -- 86
2020-01-21 04:00:00 1.4 9 Sur 17 Nordeste 1 -- -- 89
2020-01-21 03:00:00 3.2 3 Sudoeste 18 Norte 0 -- -- 75
2020-01-21 02:00:00 3.5 10 Nordeste 29 Nordeste 0 -- -- 67
2020-01-21 01:00:00 3.6 16 Norte 30 Norte 0 -- -- 63
2020-01-21 00:00:00 3.8 11 Nordeste 24 Nordeste 0 -- -- 61
2020-01-20 23:00:00 3.6 14 Nordeste 24 Norte 0 -- -- 61
2020-01-20 22:00:00 3.6 12 Norte 30 Nordeste 0 -- -- 59
2020-01-20 21:00:00 3.8 19 Nordeste 37 Nordeste 0 -- -- 58
2020-01-20 20:00:00 3.9 9 Nordeste 18 Nordeste 0 -- -- 59
2020-01-20 19:00:00 4 8 Nordeste 23 Norte 0 -- -- 57
2020-01-20 18:00:00 4.2 15 Norte 30 Norte 0 -- -- 55
2020-01-20 17:00:00 4.7 17 Nordeste 32 Norte 0 -- -- 53
2020-01-20 16:00:00 5.4 22 Norte 41 Norte 0 -- -- 50
2020-01-20 15:00:00 5.4 20 Norte 46 Norte 0 -- -- 51
2020-01-20 14:00:00 5.7 22 Norte 38 Norte 0 -- -- 47
2020-01-20 13:00:00 4.9 19 Nordeste 30 Norte 0 -- -- 49
2020-01-20 12:00:00 4.4 17 Norte 35 Norte 0 -- -- 51
2020-01-20 11:00:00 3.7 11 Norte 25 Norte 0 -- -- 53
2020-01-20 10:00:00 3.3 8 Norte 18 Noroeste 0 -- -- 54
2020-01-20 09:00:00 2.4 4 Nordeste 19 Norte 0 -- -- 56
2020-01-20 08:00:00 2.3 5 Sudeste 21 Norte 0 -- -- 55
2020-01-20 07:00:00 2.3 4 Oeste 28 Sudeste 0 -- -- 56
2020-01-20 06:00:00 2 4 Oeste 31 Noroeste 0 -- -- 57
2020-01-20 05:00:00 2.2 13 Noroeste 44 Noroeste 0 -- -- 58
2020-01-20 04:00:00 2.4 17 Noroeste 41 Noroeste 0 -- -- 59
2020-01-20 03:00:00 2.6 18 Noroeste 46 Noroeste 0 -- -- 59
2020-01-20 02:00:00 3 19 Noroeste 47 Norte 0 -- -- 57
2020-01-20 01:00:00 3.3 29 Noroeste 58 Noroeste 0 -- -- 56
2020-01-20 00:00:00 3.4 26 Noroeste 60 Noroeste 0 -- -- 57
2020-01-19 23:00:00 4 34 Norte 72 Norte 0 -- -- 55
2020-01-19 22:00:00 4.3 37 Norte 80 Noroeste 0 -- -- 54
2020-01-19 21:00:00 4.7 38 Norte 74 Norte 0 -- -- 53
2020-01-19 20:00:00 4.9 41 Norte 82 Norte 0 -- -- 54
2020-01-19 19:00:00 5.2 42 Norte 77 Norte 0 -- -- 53
2020-01-19 18:00:00 5.8 44 Norte 80 Norte 0 -- -- 49
2020-01-19 17:00:00 6.9 41 Norte 70 Norte 0 -- -- 48
2020-01-19 16:00:00 7.8 34 Norte 63 Norte 0 -- -- 51
2020-01-19 15:00:00 7.8 30 Norte 57 Norte 0 -- -- 57
2020-01-19 14:00:00 7 32 Norte 58 Norte 0 -- -- 60
2020-01-19 13:00:00 6.9 29 Norte 53 Noroeste 0 -- -- 63
2020-01-19 12:00:00 6.2 24 Norte 56 Norte 0.2 -- -- 74
2020-01-19 11:00:00 6.4 31 Norte 57 Norte 0 -- -- 76
2020-01-19 10:00:00 6.4 25 Norte 43 Norte 0 -- -- 78
2020-01-19 09:00:00 6.3 20 Norte 40 Norte 0 -- -- 82
2020-01-19 08:00:00 6.6 19 Norte 42 Norte 0 -- -- 84
2020-01-19 07:00:00 7.2 14 Norte 25 Norte 0 -- -- 78
2020-01-19 06:00:00 6.5 6 Noroeste 21 Noroeste 0 -- -- 80
2020-01-19 05:00:00 6.3 0 Calma 10 Noroeste 0 -- -- 82
2020-01-19 04:00:00 6.4 10 Noroeste 24 Norte 0 -- -- 81
2020-01-19 03:00:00 5.7 3 Norte 14 Norte 0 -- -- 85
2020-01-19 02:00:00 6.7 10 Norte 26 Noroeste 0 -- -- 78
2020-01-19 01:00:00 7 8 Noroeste 27 Norte 0 -- -- 77
2020-01-19 00:00:00 7.4 14 Noroeste 39 Norte 0 -- -- 76
2020-01-18 23:00:00 8.4 5 Noroeste 16 Oeste 0.2 -- -- 82
2020-01-18 22:00:00 8 8 Oeste 13 Noroeste 1.4 -- -- 86
2020-01-18 21:00:00 9.1 8 Este 15 Nordeste 0 -- -- 71
2020-01-18 20:00:00 9.6 4 Nordeste 17 Norte 0 -- -- 69
2020-01-18 19:00:00 12.3 4 Noroeste 23 Sudoeste 0 -- -- 64
2020-01-18 18:00:00 11.6 0 Calma 8 Nordeste 0 -- -- 65
2020-01-18 17:00:00 12.4 5 Norte 15 Este 0 -- -- 62
2020-01-18 16:00:00 13.3 2 Sudeste 13 Oeste 0 -- -- 58
2020-01-18 15:00:00 12.5 5 Nordeste 24 Sudoeste 0 -- -- 61
2020-01-18 14:00:00 12.3 6 Oeste 32 Oeste 0 -- -- 60
2020-01-18 13:00:00 12.5 16 Oeste 31 Sudoeste 0 -- -- 58
2020-01-18 12:00:00 12 13 Oeste 26 Oeste 0 -- -- 59
2020-01-18 11:00:00 8.2 2 Sudeste 9 Sudoeste 0 -- -- 72
2020-01-18 10:00:00 4.3 0 Calma 6 Nordeste 0 -- -- 88
2020-01-18 09:00:00 3.2 4 Nordeste 7 Nordeste 0 -- -- 89
2020-01-18 08:00:00 2.9 3 Noroeste 12 Norte 0 -- -- 88
2020-01-18 07:00:00 2.6 5 Sudoeste 8 Sudoeste 0 -- -- 90
2020-01-18 06:00:00 2.1 4 Sudoeste 7 Sudoeste 0 -- -- 91
2020-01-18 05:00:00 1.8 3 Norte 8 Oeste 0 -- -- 92
2020-01-18 04:00:00 0.8 5 Sudoeste 7 Sudoeste 0 -- -- 92
2020-01-18 03:00:00 1 0 Calma 8 Sudoeste 0 -- -- 89
2020-01-18 02:00:00 1.5 0 Calma 5 Sur 0 -- -- 90
2020-01-18 01:00:00 2.3 2 Sur 10 Sudoeste 0 -- -- 89
2020-01-18 00:00:00 2.1 3 Sur 11 Sudoeste 0 -- -- 90
2020-01-17 23:00:00 2.5 5 Sudoeste 9 Sudoeste 0 -- -- 88
2020-01-17 22:00:00 3.5 5 Sur 9 Sur 0 -- -- 84
2020-01-17 21:00:00 5.5 4 Sudoeste 17 Noroeste 0 -- -- 78
2020-01-17 20:00:00 7.7 3 Oeste 13 Norte 0 -- -- 71
2020-01-17 19:00:00 9.6 11 Norte 21 Noroeste 0 -- -- 66
2020-01-17 18:00:00 10.5 9 Norte 26 Norte 0 -- -- 64
2020-01-17 17:00:00 12.1 14 Norte 27 Oeste 0 -- -- 60
2020-01-17 16:00:00 15.3 14 Oeste 39 Sudoeste 0 -- -- 39
2020-01-17 15:00:00 16 14 Oeste 41 Oeste 0 -- -- 37
2020-01-17 14:00:00 15.3 19 Oeste 39 Oeste 0 -- -- 47
2020-01-17 13:00:00 12.7 16 Sudoeste 33 Oeste 0 -- -- 61
2020-01-17 12:00:00 13.1 17 Oeste 36 Oeste 0 -- -- 58
2020-01-17 11:00:00 11.4 17 Oeste 30 Oeste 0 -- -- 63
2020-01-17 10:00:00 10.9 12 Sudoeste 25 Oeste 0 -- -- 64
2020-01-17 09:00:00 10.7 9 Sudoeste 39 Sudoeste 0 -- -- 63
2020-01-17 08:00:00 10.8 25 Sudoeste 49 Sudoeste 0 -- -- 62
2020-01-17 07:00:00 10.5 16 Sudoeste 41 Sudoeste 0 -- -- 62
2020-01-17 06:00:00 10.8 20 Sudoeste 41 Sur 0 -- -- 60
2020-01-17 05:00:00 8.3 5 Sur 9 Sudoeste 0 -- -- 72
2020-01-17 04:00:00 9.5 3 Sudeste 22 Sudoeste 0 -- -- 67
2020-01-17 03:00:00 11.4 15 Sudoeste 37 Sudoeste 0 -- -- 60
2020-01-17 02:00:00 11.7 10 Sudoeste 27 Sudoeste 0 -- -- 59
2020-01-17 01:00:00 8.9 7 Oeste 17 Oeste 0 -- -- 65
2020-01-17 00:00:00 7.8 3 Norte 12 Norte 0 -- -- 76
2020-01-16 23:00:00 7.8 6 Sudoeste 13 Sudoeste 0 -- -- 77
2020-01-16 22:00:00 6 3 Norte 13 Noroeste 0 -- -- 84
2020-01-16 21:00:00 8 5 Sur 12 Sudoeste 0 -- -- 78
2020-01-16 20:00:00 8.4 3 Sudoeste 10 Sur 0 -- -- 79
2020-01-16 19:00:00 10.7 4 Norte 11 Norte 0 -- -- 71
2020-01-16 18:00:00 14.5 2 Este 12 Este 0 -- -- 62
2020-01-16 17:00:00 17.2 4 Este 10 Sudeste 0 -- -- 54
2020-01-16 16:00:00 16.3 4 Sudeste 15 Sudoeste 0 -- -- 57
2020-01-16 15:00:00 17.1 2 Este 11 Noroeste 0 -- -- 55
2020-01-16 14:00:00 14.4 4 Nordeste 8 Noroeste 0 -- -- 60
2020-01-16 13:00:00 13 6 Norte 14 Nordeste 0 -- -- 64
2020-01-16 12:00:00 13.2 4 Sur 8 Sur 0 -- -- 64
2020-01-16 11:00:00 11.3 4 Sudeste 6 Este 0 -- -- 70
2020-01-16 10:00:00 6.8 0 Calma 4 Sudoeste 0 -- -- 85
2020-01-16 09:00:00 3.9 2 Sur 5 Sudoeste 0 -- -- 90
2020-01-16 08:00:00 5 2 Sur 12 Oeste 0 -- -- 86
2020-01-16 07:00:00 6.8 5 Sudoeste 8 Sudoeste 0 -- -- 85
2020-01-16 06:00:00 7.2 3 Sur 13 Oeste 0 -- -- 81
2020-01-16 05:00:00 9.2 8 Oeste 20 Oeste 0 -- -- 75
2020-01-16 04:00:00 9.2 9 Oeste 20 Oeste 0 -- -- 75
2020-01-16 03:00:00 9.2 8 Oeste 23 Oeste 0 -- -- 74
2020-01-16 02:00:00 9.3 12 Oeste 21 Oeste 0 -- -- 73
2020-01-16 01:00:00 9.7 11 Oeste 26 Oeste 0 -- -- 72
2020-01-16 00:00:00 9.7 11 Sudoeste 22 Oeste 0 -- -- 72
2020-01-15 23:00:00 10.1 9 Oeste 22 Oeste 0 -- -- 70
2020-01-15 22:00:00 10.1 10 Oeste 23 Oeste 0 -- -- 69
2020-01-15 21:00:00 9.9 8 Oeste 14 Oeste 0 -- -- 68
2020-01-15 20:00:00 10.3 5 Sudoeste 18 Sudoeste 0 -- -- 65
2020-01-15 19:00:00 12.7 10 Oeste 23 Oeste 0 -- -- 58
2020-01-15 18:00:00 13.8 5 Oeste 22 Oeste 0 -- -- 55
2020-01-15 17:00:00 15.2 7 Sudoeste 25 Sudoeste 0 -- -- 51
2020-01-15 16:00:00 16 12 Oeste 26 Oeste 0 -- -- 49
2020-01-15 15:00:00 16.4 10 Sudoeste 27 Oeste 0 -- -- 47
2020-01-15 14:00:00 14.5 7 Sudoeste 30 Sudoeste 0 -- -- 51
2020-01-15 13:00:00 14 15 Sudoeste 30 Sudoeste 0 -- -- 52
2020-01-15 12:00:00 13.8 12 Sudoeste 27 Sudoeste 0 -- -- 53
2020-01-15 11:00:00 11.1 12 Sudoeste 27 Sudoeste 0 -- -- 61
2020-01-15 10:00:00 9.9 9 Sudoeste 25 Oeste 0 -- -- 65
2020-01-15 09:00:00 6.6 8 Sudoeste 21 Noroeste 0 -- -- 75
2020-01-15 08:00:00 4.5 7 Noroeste 15 Noroeste 0 -- -- 79
2020-01-15 07:00:00 5.1 5 Sudoeste 18 Noroeste 0 -- -- 75
2020-01-15 06:00:00 6.3 8 Noroeste 18 Noroeste 0 -- -- 72
2020-01-15 05:00:00 5.6 9 Oeste 17 Oeste 0 -- -- 73
2020-01-15 04:00:00 6.2 8 Oeste 21 Oeste 0 -- -- 70
2020-01-15 03:00:00 6.3 12 Oeste 22 Oeste 0 -- -- 70
2020-01-15 02:00:00 2.6 3 Norte 11 Sur 0 -- -- 81
2020-01-15 01:00:00 4.2 4 Sudeste 14 Sur 0 -- -- 74
2020-01-15 00:00:00 7.2 9 Sudoeste 23 Oeste 0 -- -- 65
2020-01-14 23:00:00 6.9 8 Sudeste 24 Sur 0 -- -- 64
2020-01-14 22:00:00 4.9 2 Sudeste 12 Sur 0 -- -- 68
2020-01-14 21:00:00 6.6 5 Oeste 17 Oeste 0 -- -- 63
2020-01-14 20:00:00 8 10 Oeste 20 Sudoeste 0 -- -- 58
2020-01-14 19:00:00 8.4 13 Sudoeste 27 Sudoeste 0 -- -- 57
2020-01-14 18:00:00 9.1 15 Sudoeste 31 Sudoeste 0 -- -- 56
2020-01-14 17:00:00 10.7 15 Sudoeste 35 Sudoeste 0 -- -- 52
2020-01-14 16:00:00 11 16 Sudoeste 37 Oeste 0 -- -- 51
2020-01-14 15:00:00 11 18 Sudoeste 41 Oeste 0 -- -- 51
2020-01-14 14:00:00 11 19 Sudoeste 34 Oeste 0 -- -- 52
2020-01-14 13:00:00 10.1 15 Oeste 32 Oeste 0 -- -- 55
2020-01-14 12:00:00 8.6 17 Oeste 39 Oeste 0 -- -- 59
2020-01-14 11:00:00 7 18 Oeste 44 Oeste 0 -- -- 62
2020-01-14 10:00:00 5.9 19 Sudoeste 36 Oeste 0 -- -- 65
2020-01-14 09:00:00 5.1 17 Oeste 36 Sudoeste 0 -- -- 68
2020-01-14 08:00:00 5.3 15 Oeste 45 Sudoeste 0 -- -- 66
2020-01-14 07:00:00 5.3 15 Sudoeste 39 Sudoeste 0 -- -- 66
2020-01-14 06:00:00 5 21 Sudoeste 37 Oeste 0 -- -- 67
2020-01-14 05:00:00 6.1 14 Oeste 39 Oeste 0 -- -- 62
2020-01-14 04:00:00 6.1 11 Noroeste 37 Oeste 0 -- -- 62
2020-01-14 03:00:00 6.2 18 Sudoeste 40 Oeste 0 -- -- 61
2020-01-14 02:00:00 7 22 Oeste 48 Oeste 0 -- -- 59
2020-01-14 01:00:00 6.8 18 Sudoeste 41 Noroeste 0 -- -- 61
2020-01-14 00:00:00 6.4 14 Sudoeste 24 Sudoeste 0 -- -- 63
2020-01-13 23:00:00 0.8 8 Sudoeste 18 Sudoeste 0 -- -- 93
2020-01-13 22:00:00 6.3 6 Sudoeste 20 Sudoeste 0 -- -- 60
2020-01-13 21:00:00 7 12 Sudoeste 27 Sudoeste 0 -- -- 60
2020-01-13 20:00:00 -0.3 3 Sudoeste 8 Noroeste 0 -- -- 90
2020-01-13 19:00:00 0.8 4 Sur 8 Sudoeste 0 -- -- 87
2020-01-13 18:00:00 2.6 2 Nordeste 12 Norte 0 -- -- 83
2020-01-13 17:00:00 4.9 4 Nordeste 10 Nordeste 0 -- -- 76
2020-01-13 16:00:00 4.9 5 Norte 15 Nordeste 0 -- -- 72
2020-01-13 15:00:00 5.9 9 Norte 13 Norte 0 -- -- 71
2020-01-13 14:00:00 5.3 4 Nordeste 11 Nordeste 0 -- -- 70
2020-01-13 13:00:00 2.4 5 Norte 11 Nordeste 0 -- -- 82
2020-01-13 12:00:00 0.6 4 Norte 7 Nordeste 0 -- -- 86
2020-01-13 11:00:00 -1.9 5 Norte 9 Norte 0 -- -- 91
2020-01-13 10:00:00 -2.1 3 Nordeste 6 Nordeste 0 -- -- 89
2020-01-13 09:00:00 -4.1 0 Calma 5 Nordeste 0 -- -- 92
2020-01-13 08:00:00 -3.8 3 Norte 6 Norte 0 -- -- 90
2020-01-13 07:00:00 -3.1 0 Calma 9 Sudoeste 0 -- -- 91
2020-01-13 06:00:00 -3.1 0 Calma 6 Sur 0 -- -- 89
2020-01-13 05:00:00 -2.4 5 Sudoeste 7 Sudoeste 0 -- -- 87
2020-01-13 04:00:00 -1.8 2 Sudeste 5 Sudeste 0 -- -- 86
2020-01-13 03:00:00 -2 0 Calma 5 Sudoeste 0 -- -- 84
2020-01-13 02:00:00 -1.6 0 Calma 6 Sur 0 -- -- 81
2020-01-13 01:00:00 -0.6 3 Sudoeste 6 Sudoeste 0 -- -- 78
2020-01-13 00:00:00 2.3 3 Sur 14 Oeste 0 -- -- 66
2020-01-12 23:00:00 2.9 9 Sudoeste 13 Sudoeste 0 -- -- 67
2020-01-12 22:00:00 3.3 3 Sudeste 14 Sudoeste 0 -- -- 64
2020-01-12 21:00:00 3.7 8 Oeste 20 Oeste 0 -- -- 61
2020-01-12 20:00:00 1.4 0 Calma 8 Sudoeste 0 -- -- 74
2020-01-12 19:00:00 3.5 3 Sudoeste 6 Sur 0 -- -- 67
2020-01-12 18:00:00 9.1 3 Sudoeste 8 Sudeste 0 -- -- 49
2020-01-12 17:00:00 13.5 4 Oeste 7 Sur 0 -- -- 35
2020-01-12 16:00:00 12.9 3 Norte 12 Norte 0 -- -- 35
2020-01-12 15:00:00 12.4 5 Norte 10 Norte 0 -- -- 36
2020-01-12 14:00:00 11.1 4 Norte 8 Sudeste 0 -- -- 45
2020-01-12 13:00:00 9.3 3 Sudeste 9 Sudeste 0 -- -- 53
2020-01-12 12:00:00 7.3 4 Este 9 Sudeste 0 -- -- 58
2020-01-12 11:00:00 4.5 2 Sudeste 7 Sudeste 0 -- -- 70
2020-01-12 10:00:00 0.2 2 Sudeste 8 Nordeste 0 -- -- 83
2020-01-12 09:00:00 -3.5 4 Sudoeste 6 Sudoeste 0 -- -- 91
2020-01-12 08:00:00 -4 4 Sudoeste 8 Sudoeste 0 -- -- 90
2020-01-12 07:00:00 -4 0 Calma 7 Sudoeste 0 -- -- 90
2020-01-12 06:00:00 -4 4 Sudoeste 6 Sudoeste 0 -- -- 90
2020-01-12 05:00:00 -3.5 4 Sudoeste 7 Sudoeste 0 -- -- 88
2020-01-12 04:00:00 -3 5 Sudoeste 8 Sudoeste 0 -- -- 87
2020-01-12 03:00:00 -2.3 0 Calma 9 Sudoeste 0 -- -- 87
2020-01-12 02:00:00 -1.5 5 Sudoeste 8 Sudoeste 0 -- -- 87
2020-01-12 01:00:00 -0.8 0 Calma 6 Norte 0 -- -- 81
2020-01-12 00:00:00 0.1 4 Sur 8 Oeste 0 -- -- 82
2020-01-11 23:00:00 0.6 5 Sur 9 Oeste 0 -- -- 81
2020-01-11 22:00:00 0.1 3 Sudeste 5 Sur 0 -- -- 85
2020-01-11 21:00:00 0.7 3 Sur 6 Sur 0 -- -- 84
2020-01-11 20:00:00 1.6 4 Sudoeste 8 Sudoeste 0 -- -- 78
2020-01-11 19:00:00 4.1 5 Sudoeste 8 Oeste 0 -- -- 69
2020-01-11 18:00:00 9.5 4 Noroeste 11 Oeste 0 -- -- 51
2020-01-11 17:00:00 13.2 4 Oeste 12 Sudoeste 0 -- -- 41
2020-01-11 16:00:00 13 7 Sudoeste 22 Sudoeste 0 -- -- 40
2020-01-11 15:00:00 11.6 14 Oeste 27 Oeste 0 -- -- 41
2020-01-11 14:00:00 12.1 8 Oeste 18 Oeste 0 -- -- 43
2020-01-11 13:00:00 11.1 10 Oeste 19 Oeste 0 -- -- 48
2020-01-11 12:00:00 9.4 10 Oeste 22 Oeste 0 -- -- 55
2020-01-11 11:00:00 7.8 10 Oeste 23 Oeste 0 -- -- 62
2020-01-11 10:00:00 5.5 12 Oeste 27 Oeste 0 -- -- 69
2020-01-11 09:00:00 3 6 Oeste 16 Oeste 0 -- -- 79
2020-01-11 08:00:00 2 10 Oeste 18 Oeste 0 -- -- 84
2020-01-11 07:00:00 0.7 2 Sudoeste 11 Oeste 0 -- -- 85
2020-01-11 06:00:00 0.2 3 Sudeste 8 Sudoeste 0 -- -- 88
2020-01-11 05:00:00 0.9 2 Este 12 Oeste 0 -- -- 83
2020-01-11 04:00:00 0.4 5 Sudoeste 10 Sudoeste 0 -- -- 85
2020-01-11 03:00:00 2 4 Sur 12 Sudoeste 0 -- -- 81
2020-01-11 02:00:00 5 6 Oeste 15 Oeste 0 -- -- 72
2020-01-11 01:00:00 7 6 Noroeste 20 Noroeste 0 -- -- 67
2020-01-11 00:00:00 6.9 9 Noroeste 18 Noroeste 0 -- -- 71
2020-01-10 23:00:00 6.8 6 Noroeste 14 Noroeste 0 -- -- 72
2020-01-10 22:00:00 7 6 Sudoeste 17 Sudoeste 0 -- -- 70
2020-01-10 21:00:00 7.5 5 Oeste 17 Oeste 0 -- -- 68
2020-01-10 20:00:00 7.9 4 Noroeste 12 Noroeste 0 -- -- 67
2020-01-10 19:00:00 8.2 6 Noroeste 21 Noroeste 0 -- -- 68
2020-01-10 18:00:00 8.9 12 Norte 30 Norte 0 -- -- 68
2020-01-10 17:00:00 9.9 13 Norte 35 Norte 0 -- -- 63
2020-01-10 16:00:00 10.5 9 Noroeste 42 Noroeste 0 -- -- 61
2020-01-10 15:00:00 10.9 23 Norte 38 Norte 0 -- -- 60
2020-01-10 14:00:00 10.2 17 Norte 40 Norte 0 -- -- 63
2020-01-10 13:00:00 9.7 19 Norte 41 Noroeste 0 -- -- 62
2020-01-10 12:00:00 9.4 18 Norte 33 Norte 0 -- -- 61
2020-01-10 11:00:00 9.3 17 Norte 30 Norte 0 -- -- 64
2020-01-10 10:00:00 7.3 5 Norte 27 Norte 0 -- -- 72
2020-01-10 09:00:00 6.8 4 Noroeste 23 Noroeste 0 -- -- 73
2020-01-10 08:00:00 7.6 5 Noroeste 26 Norte 0 -- -- 69
2020-01-10 07:00:00 7.5 9 Noroeste 27 Noroeste 0 -- -- 70
2020-01-10 06:00:00 7.1 10 Noroeste 29 Noroeste 0 -- -- 78
2020-01-10 05:00:00 6.1 5 Oeste 14 Sudoeste 0 -- -- 97
2020-01-10 04:00:00 5.1 5 Oeste 13 Oeste 0 -- -- 100
2020-01-10 03:00:00 3.6 4 Sur 10 Sudoeste 0 -- -- 99
2020-01-10 02:00:00 2.9 3 Sudoeste 13 Sur 0.2 -- -- 99
2020-01-10 01:00:00 2.6 4 Sudeste 10 Sur 0 -- -- 99
2020-01-10 00:00:00 2.6 4 Norte 16 Nordeste 0 -- -- 99
2020-01-09 23:00:00 2.6 6 Sur 10 Sur 0 -- -- 99
2020-01-09 22:00:00 2.5 0 Calma 9 Este 0 -- -- 99
2020-01-09 21:00:00 2.5 3 Sudeste 9 Sur 0 -- -- 99
2020-01-09 20:00:00 2.2 5 Sudeste 14 Nordeste 0 -- -- 99
2020-01-09 19:00:00 2.4 4 Norte 9 Nordeste 0 -- -- 98
2020-01-09 18:00:00 2.6 2 Norte 10 Nordeste 0 -- -- 98
2020-01-09 17:00:00 2.9 6 Norte 12 Norte 0 -- -- 98
2020-01-09 16:00:00 3.2 4 Nordeste 9 Nordeste 0 -- -- 99
2020-01-09 15:00:00 3 3 Nordeste 10 Nordeste 0 -- -- 99
2020-01-09 14:00:00 2.5 3 Este 9 Este 0 -- -- 99
2020-01-09 13:00:00 1.9 4 Nordeste 10 Nordeste 0 -- -- 99
2020-01-09 12:00:00 1.4 3 Nordeste 7 Nordeste 0 -- -- 99
2020-01-09 11:00:00 0.7 2 Sudoeste 9 Sudeste 0 -- -- 99
2020-01-09 10:00:00 0.7 0 Calma 6 Sudeste 0 -- -- 99
2020-01-09 09:00:00 0.6 0 Calma -- -- 0 -- -- 99
2020-01-09 08:00:00 0.7 0 Calma 4 Noroeste 0 -- -- 99
2020-01-09 07:00:00 0.8 0 Calma 4 Nordeste 0 -- -- 99
2020-01-09 06:00:00 0.8 0 Calma 6 Norte 0 -- -- 99
2020-01-09 05:00:00 1 2 Noroeste 8 Norte 0 -- -- 98
2020-01-09 04:00:00 1.3 0 Calma 5 Este 0 -- -- 98
2020-01-09 03:00:00 1.4 0 Calma 5 Norte 0 -- -- 98
2020-01-09 02:00:00 1.5 0 Calma 5 Sudeste 0 -- -- 98
2020-01-09 01:00:00 1.7 0 Calma 5 Sur 0 -- -- 98
2020-01-09 00:00:00 1.8 0 Calma 5 Sur 0 -- -- 98
2020-01-08 23:00:00 1.7 3 Sur 6 Sudoeste 0 -- -- 98
2020-01-08 22:00:00 1.9 0 Calma 6 Este 0 -- -- 98
2020-01-08 21:00:00 2 3 Norte 7 Norte 0 -- -- 97
2020-01-08 20:00:00 2.2 3 Norte 9 Norte 0 -- -- 97
2020-01-08 19:00:00 2.5 3 Nordeste 9 Norte 0 -- -- 96
2020-01-08 18:00:00 2.7 7 Norte 12 Norte 0 -- -- 95
2020-01-08 17:00:00 3.5 8 Norte 14 Nordeste 0 -- -- 93
2020-01-08 16:00:00 6 7 Nordeste 12 Nordeste 0 -- -- 84
2020-01-08 15:00:00 5.3 4 Norte 10 Norte 0 -- -- 88
2020-01-08 14:00:00 3.5 6 Norte 12 Nordeste 0 -- -- 95
2020-01-08 13:00:00 2.8 4 Norte 14 Nordeste 0 -- -- 96
2020-01-08 12:00:00 2.3 5 Nordeste 9 Nordeste 0 -- -- 98
2020-01-08 11:00:00 0.1 5 Norte 8 Norte 0 -- -- 97
2020-01-08 10:00:00 -0.2 3 Este 9 Este 0 -- -- 97
2020-01-08 09:00:00 -1.5 3 Nordeste 7 Sudoeste 0 -- -- 97
2020-01-08 08:00:00 -1.7 4 Norte 6 Nordeste 0 -- -- 97
2020-01-08 07:00:00 -1.6 0 Calma 6 Norte 0 -- -- 97
2020-01-08 06:00:00 -1.4 0 Calma 6 Sudoeste 0 -- -- 97
2020-01-08 05:00:00 -1.2 0 Calma -- -- 0 -- -- 97
2020-01-08 04:00:00 -1.2 0 Calma -- -- 0 -- -- 97
2020-01-08 03:00:00 -1 0 Calma 6 Sudoeste 0 -- -- 97
2020-01-08 02:00:00 -0.7 0 Calma 5 Sudoeste 0 -- -- 96
2020-01-08 01:00:00 -0.1 2 Sudoeste 5 Sudoeste 0 -- -- 96
2020-01-08 00:00:00 0.3 2 Norte 7 Norte 0 -- -- 95
2020-01-07 23:00:00 0.5 0 Calma 6 Sur 0 -- -- 93
2020-01-07 22:00:00 0.8 2 Nordeste 4 Oeste 0 -- -- 92
2020-01-07 21:00:00 1.5 0 Calma 6 Sudoeste 0 -- -- 91
2020-01-07 20:00:00 2.4 3 Sudoeste 5 Sudoeste 0 -- -- 88
2020-01-07 19:00:00 4 3 Sudoeste 6 Norte 0 -- -- 84
2020-01-07 18:00:00 6.3 0 Calma 8 Nordeste 0 -- -- 77
2020-01-07 17:00:00 8.5 6 Norte 13 Nordeste 0 -- -- 69
2020-01-07 16:00:00 10.2 6 Norte 10 Norte 0 -- -- 63
2020-01-07 15:00:00 10.5 4 Nordeste 9 Nordeste 0 -- -- 60
2020-01-07 14:00:00 9.1 2 Nordeste 9 Norte 0 -- -- 64
2020-01-07 13:00:00 7.7 5 Norte 8 Norte 0 -- -- 69
2020-01-07 12:00:00 4.7 2 Nordeste 5 Nordeste 0 -- -- 82
2020-01-07 11:00:00 1 4 Norte 7 Norte 0 -- -- 93
2020-01-07 10:00:00 -0.9 0 Calma 3 Norte 0 -- -- 97
2020-01-07 09:00:00 -3.5 0 Calma 9 Sudoeste 0 -- -- 97
2020-01-07 08:00:00 -3 0 Calma 8 Sudoeste 0 -- -- 98
2020-01-07 07:00:00 -3.5 3 Sudoeste 6 Norte 0 -- -- 97
2020-01-07 06:00:00 -3.2 3 Norte 6 Norte 0 -- -- 97
2020-01-07 05:00:00 -2.9 3 Sudoeste 5 Sudoeste 0 -- -- 98
2020-01-07 04:00:00 -2.6 2 Nordeste 7 Sudoeste 0 -- -- 98
2020-01-07 03:00:00 -2.5 0 Calma 4 Nordeste 0 -- -- 98
2020-01-07 02:00:00 -2 4 Sur 11 Sudoeste 0 -- -- 98
2020-01-07 01:00:00 -1.9 0 Calma 7 Nordeste 0 -- -- 98
2020-01-07 00:00:00 -1 4 Sur 7 Sudeste 0 -- -- 98
2020-01-06 23:00:00 -0.1 5 Sur 10 Sudoeste 0 -- -- 98
2020-01-06 22:00:00 0.7 3 Sudeste 10 Sudeste 0 -- -- 98
2020-01-06 21:00:00 0.9 0 Calma 8 Sur 0 -- -- 98
2020-01-06 20:00:00 1 0 Calma 5 Norte 0 -- -- 98
2020-01-06 19:00:00 0.9 0 Calma 7 Sur 0 -- -- 98
2020-01-06 18:00:00 1.2 3 Sur 6 Norte 0 -- -- 98
2020-01-06 17:00:00 1.3 4 Norte 9 Nordeste 0 -- -- 98
2020-01-06 16:00:00 1.5 2 Noroeste 8 Nordeste 0 -- -- 98
2020-01-06 15:00:00 1.5 4 Este 9 Este 0 -- -- 98
2020-01-06 14:00:00 1 2 Sur 6 Norte 0 -- -- 98
2020-01-06 13:00:00 0.6 4 Nordeste 7 Nordeste 0 -- -- 98
2020-01-06 12:00:00 0.2 3 Nordeste 12 Nordeste 0 -- -- 98
2020-01-06 11:00:00 0.1 4 Nordeste 10 Nordeste 0 -- -- 98
2020-01-06 10:00:00 -0.1 3 Nordeste 9 Noroeste 0 -- -- 98